sensor_id;sensor_type;location;lat;lon;timestamp;P1;durP1;ratioP1;P2;durP2;ratioP2
31537;SDS011;18147;51.952;6.146;2022-09-01T00:01:36;3.08;;;2.58;;
31537;SDS011;18147;51.952;6.146;2022-09-01T00:04:05;3.22;;;2.28;;
31537;SDS011;18147;51.952;6.146;2022-09-01T00:06:33;4.28;;;2.22;;
31537;SDS011;18147;51.952;6.146;2022-09-01T00:09:00;2.90;;;2.60;;
31537;SDS011;18147;51.952;6.146;2022-09-01T00:11:28;5.07;;;2.95;;
31537;SDS011;18147;51.952;6.146;2022-09-01T00:13:55;7.05;;;2.60;;
31537;SDS011;18147;51.952;6.146;2022-09-01T00:16:21;5.22;;;2.20;;
31537;SDS011;18147;51.952;6.146;2022-09-01T00:18:48;15.40;;;2.95;;
31537;SDS011;18147;51.952;6.146;2022-09-01T00:21:16;2.80;;;2.30;;
31537;SDS011;18147;51.952;6.146;2022-09-01T00:23:43;2.85;;;2.00;;
31537;SDS011;18147;51.952;6.146;2022-09-01T00:26:08;3.00;;;1.95;;
31537;SDS011;18147;51.952;6.146;2022-09-01T00:28:34;4.05;;;3.05;;
31537;SDS011;18147;51.952;6.146;2022-09-01T00:31:02;3.53;;;2.40;;
31537;SDS011;18147;51.952;6.146;2022-09-01T00:33:30;5.57;;;2.50;;
31537;SDS011;18147;51.952;6.146;2022-09-01T00:35:56;3.97;;;2.80;;
31537;SDS011;18147;51.952;6.146;2022-09-01T00:38:21;4.50;;;2.28;;
31537;SDS011;18147;51.952;6.146;2022-09-01T00:40:47;6.03;;;2.78;;
31537;SDS011;18147;51.952;6.146;2022-09-01T00:43:14;4.40;;;3.05;;
31537;SDS011;18147;51.952;6.146;2022-09-01T00:45:43;5.50;;;2.53;;
31537;SDS011;18147;51.952;6.146;2022-09-01T00:48:08;3.92;;;2.88;;
31537;SDS011;18147;51.952;6.146;2022-09-01T00:50:33;3.22;;;2.60;;
31537;SDS011;18147;51.952;6.146;2022-09-01T00:53:00;4.97;;;2.63;;
31537;SDS011;18147;51.952;6.146;2022-09-01T00:55:30;5.70;;;2.50;;
31537;SDS011;18147;51.952;6.146;2022-09-01T00:57:57;3.17;;;2.40;;
31537;SDS011;18147;51.952;6.146;2022-09-01T01:00:28;6.20;;;3.40;;
31537;SDS011;18147;51.952;6.146;2022-09-01T01:02:55;5.10;;;3.13;;
31537;SDS011;18147;51.952;6.146;2022-09-01T01:05:22;4.75;;;3.33;;
31537;SDS011;18147;51.952;6.146;2022-09-01T01:07:52;7.95;;;3.10;;
31537;SDS011;18147;51.952;6.146;2022-09-01T01:10:19;3.33;;;2.97;;
31537;SDS011;18147;51.952;6.146;2022-09-01T01:12:47;5.57;;;3.17;;
31537;SDS011;18147;51.952;6.146;2022-09-01T01:15:16;4.93;;;3.10;;
31537;SDS011;18147;51.952;6.146;2022-09-01T01:17:42;6.43;;;3.20;;
31537;SDS011;18147;51.952;6.146;2022-09-01T01:20:08;8.50;;;3.10;;
31537;SDS011;18147;51.952;6.146;2022-09-01T01:26:05;4.53;;;3.00;;
31537;SDS011;18147;51.952;6.146;2022-09-01T01:28:35;5.57;;;2.50;;
31537;SDS011;18147;51.952;6.146;2022-09-01T01:31:04;4.75;;;2.30;;
31537;SDS011;18147;51.952;6.146;2022-09-01T01:33:40;4.60;;;2.65;;
31537;SDS011;18147;51.952;6.146;2022-09-01T01:36:11;3.08;;;2.60;;
31537;SDS011;18147;51.952;6.146;2022-09-01T01:38:40;9.68;;;3.42;;
31537;SDS011;18147;51.952;6.146;2022-09-01T01:41:12;4.93;;;3.03;;
31537;SDS011;18147;51.952;6.146;2022-09-01T01:43:39;4.07;;;2.97;;
31537;SDS011;18147;51.952;6.146;2022-09-01T01:46:06;4.60;;;2.35;;
31537;SDS011;18147;51.952;6.146;2022-09-01T01:48:37;5.90;;;2.90;;
31537;SDS011;18147;51.952;6.146;2022-09-01T01:51:04;5.20;;;2.83;;
31537;SDS011;18147;51.952;6.146;2022-09-01T01:53:30;3.80;;;3.00;;
31537;SDS011;18147;51.952;6.146;2022-09-01T01:55:57;7.45;;;3.88;;
31537;SDS011;18147;51.952;6.146;2022-09-01T01:58:28;4.78;;;2.92;;
31537;SDS011;18147;51.952;6.146;2022-09-01T02:00:54;8.88;;;2.88;;
31537;SDS011;18147;51.952;6.146;2022-09-01T02:03:23;6.55;;;3.05;;
31537;SDS011;18147;51.952;6.146;2022-09-01T02:05:52;3.97;;;2.95;;
31537;SDS011;18147;51.952;6.146;2022-09-01T02:08:20;7.28;;;3.10;;
31537;SDS011;18147;51.952;6.146;2022-09-01T02:10:51;6.43;;;3.63;;
31537;SDS011;18147;51.952;6.146;2022-09-01T02:13:21;4.75;;;3.22;;
31537;SDS011;18147;51.952;6.146;2022-09-01T02:15:50;5.75;;;3.15;;
31537;SDS011;18147;51.952;6.146;2022-09-01T02:18:19;5.25;;;3.20;;
31537;SDS011;18147;51.952;6.146;2022-09-01T02:20:56;4.82;;;2.95;;
31537;SDS011;18147;51.952;6.146;2022-09-01T02:23:24;7.93;;;2.95;;
31537;SDS011;18147;51.952;6.146;2022-09-01T02:25:50;5.05;;;3.05;;
31537;SDS011;18147;51.952;6.146;2022-09-01T02:28:19;5.03;;;3.20;;
31537;SDS011;18147;51.952;6.146;2022-09-01T02:30:47;4.57;;;3.25;;
31537;SDS011;18147;51.952;6.146;2022-09-01T02:33:16;5.55;;;3.15;;
31537;SDS011;18147;51.952;6.146;2022-09-01T02:36:20;7.32;;;3.30;;
31537;SDS011;18147;51.952;6.146;2022-09-01T02:38:40;7.68;;;3.47;;
31537;SDS011;18147;51.952;6.146;2022-09-01T02:41:08;6.68;;;3.03;;
31537;SDS011;18147;51.952;6.146;2022-09-01T02:43:34;7.18;;;3.00;;
31537;SDS011;18147;51.952;6.146;2022-09-01T02:46:00;4.78;;;3.40;;
31537;SDS011;18147;51.952;6.146;2022-09-01T02:48:27;5.60;;;3.22;;
31537;SDS011;18147;51.952;6.146;2022-09-01T02:50:58;6.72;;;3.40;;
31537;SDS011;18147;51.952;6.146;2022-09-01T02:53:26;3.70;;;2.90;;
31537;SDS011;18147;51.952;6.146;2022-09-01T02:55:53;7.40;;;3.15;;
31537;SDS011;18147;51.952;6.146;2022-09-01T02:58:27;8.10;;;3.72;;
31537;SDS011;18147;51.952;6.146;2022-09-01T03:00:57;5.10;;;3.17;;
31537;SDS011;18147;51.952;6.146;2022-09-01T03:03:23;7.95;;;3.75;;
31537;SDS011;18147;51.952;6.146;2022-09-01T03:05:50;5.63;;;2.90;;
31537;SDS011;18147;51.952;6.146;2022-09-01T03:08:19;5.93;;;2.85;;
31537;SDS011;18147;51.952;6.146;2022-09-01T03:10:45;5.47;;;3.28;;
31537;SDS011;18147;51.952;6.146;2022-09-01T03:13:15;6.80;;;3.20;;
31537;SDS011;18147;51.952;6.146;2022-09-01T03:15:43;5.80;;;3.15;;
31537;SDS011;18147;51.952;6.146;2022-09-01T03:18:10;4.50;;;3.15;;
31537;SDS011;18147;51.952;6.146;2022-09-01T03:20:38;6.55;;;3.08;;
31537;SDS011;18147;51.952;6.146;2022-09-01T03:23:06;4.47;;;3.03;;
31537;SDS011;18147;51.952;6.146;2022-09-01T03:25:33;4.40;;;3.67;;
31537;SDS011;18147;51.952;6.146;2022-09-01T03:28:00;5.88;;;3.40;;
31537;SDS011;18147;51.952;6.146;2022-09-01T03:30:31;3.55;;;3.25;;
31537;SDS011;18147;51.952;6.146;2022-09-01T03:32:59;4.70;;;3.20;;
31537;SDS011;18147;51.952;6.146;2022-09-01T03:35:26;7.40;;;3.35;;
31537;SDS011;18147;51.952;6.146;2022-09-01T03:37:53;4.10;;;3.25;;
31537;SDS011;18147;51.952;6.146;2022-09-01T03:40:24;5.47;;;3.67;;
31537;SDS011;18147;51.952;6.146;2022-09-01T03:43:00;5.38;;;3.25;;
31537;SDS011;18147;51.952;6.146;2022-09-01T03:45:27;4.93;;;3.22;;
31537;SDS011;18147;51.952;6.146;2022-09-01T03:47:53;4.72;;;2.90;;
31537;SDS011;18147;51.952;6.146;2022-09-01T03:50:22;4.85;;;3.55;;
31537;SDS011;18147;51.952;6.146;2022-09-01T03:52:50;3.35;;;2.83;;
31537;SDS011;18147;51.952;6.146;2022-09-01T03:55:23;6.93;;;2.87;;
31537;SDS011;18147;51.952;6.146;2022-09-01T03:57:59;3.72;;;2.83;;
31537;SDS011;18147;51.952;6.146;2022-09-01T04:00:31;3.03;;;2.70;;
31537;SDS011;18147;51.952;6.146;2022-09-01T04:03:01;4.18;;;3.17;;
31537;SDS011;18147;51.952;6.146;2022-09-01T04:05:29;4.22;;;2.90;;
31537;SDS011;18147;51.952;6.146;2022-09-01T04:08:01;5.90;;;3.33;;
31537;SDS011;18147;51.952;6.146;2022-09-01T04:10:34;4.20;;;2.80;;
31537;SDS011;18147;51.952;6.146;2022-09-01T04:13:01;3.70;;;3.05;;
31537;SDS011;18147;51.952;6.146;2022-09-01T04:15:28;12.90;;;3.17;;
31537;SDS011;18147;51.952;6.146;2022-09-01T04:17:54;8.35;;;3.30;;
31537;SDS011;18147;51.952;6.146;2022-09-01T04:20:34;4.28;;;2.65;;
31537;SDS011;18147;51.952;6.146;2022-09-01T04:25:48;3.72;;;2.80;;
31537;SDS011;18147;51.952;6.146;2022-09-01T04:28:18;7.35;;;3.45;;
31537;SDS011;18147;51.952;6.146;2022-09-01T04:30:51;5.45;;;2.95;;
31537;SDS011;18147;51.952;6.146;2022-09-01T04:33:24;2.88;;;2.53;;
31537;SDS011;18147;51.952;6.146;2022-09-01T04:35:51;3.15;;;2.35;;
31537;SDS011;18147;51.952;6.146;2022-09-01T04:38:21;4.63;;;2.83;;
31537;SDS011;18147;51.952;6.146;2022-09-01T04:40:49;3.90;;;3.00;;
31537;SDS011;18147;51.952;6.146;2022-09-01T04:43:16;6.07;;;2.85;;
31537;SDS011;18147;51.952;6.146;2022-09-01T04:45:41;7.47;;;2.85;;
31537;SDS011;18147;51.952;6.146;2022-09-01T04:48:09;6.10;;;2.88;;
31537;SDS011;18147;51.952;6.146;2022-09-01T04:50:35;4.07;;;2.65;;
31537;SDS011;18147;51.952;6.146;2022-09-01T04:53:16;4.38;;;3.00;;
31537;SDS011;18147;51.952;6.146;2022-09-01T04:55:45;7.05;;;2.78;;
31537;SDS011;18147;51.952;6.146;2022-09-01T04:58:12;3.80;;;2.80;;
31537;SDS011;18147;51.952;6.146;2022-09-01T05:00:46;4.97;;;3.20;;
31537;SDS011;18147;51.952;6.146;2022-09-01T05:03:16;5.70;;;2.75;;
31537;SDS011;18147;51.952;6.146;2022-09-01T05:06:18;5.47;;;2.80;;
31537;SDS011;18147;51.952;6.146;2022-09-01T05:08:51;5.57;;;2.83;;
31537;SDS011;18147;51.952;6.146;2022-09-01T05:11:35;5.95;;;3.03;;
31537;SDS011;18147;51.952;6.146;2022-09-01T05:14:09;4.38;;;2.90;;
31537;SDS011;18147;51.952;6.146;2022-09-01T05:16:34;4.95;;;3.05;;
31537;SDS011;18147;51.952;6.146;2022-09-01T05:19:01;5.53;;;3.75;;
31537;SDS011;18147;51.952;6.146;2022-09-01T05:21:32;3.58;;;2.92;;
31537;SDS011;18147;51.952;6.146;2022-09-01T05:23:59;8.13;;;3.67;;
31537;SDS011;18147;51.952;6.146;2022-09-01T05:26:27;5.30;;;3.08;;
31537;SDS011;18147;51.952;6.146;2022-09-01T05:28:57;3.78;;;2.90;;
31537;SDS011;18147;51.952;6.146;2022-09-01T05:31:26;5.20;;;2.80;;
31537;SDS011;18147;51.952;6.146;2022-09-01T05:33:57;4.50;;;2.85;;
31537;SDS011;18147;51.952;6.146;2022-09-01T05:36:23;5.47;;;3.40;;
31537;SDS011;18147;51.952;6.146;2022-09-01T05:38:51;5.97;;;2.97;;
31537;SDS011;18147;51.952;6.146;2022-09-01T05:41:18;3.78;;;3.00;;
31537;SDS011;18147;51.952;6.146;2022-09-01T05:43:45;5.07;;;3.10;;
31537;SDS011;18147;51.952;6.146;2022-09-01T05:46:18;9.73;;;3.85;;
31537;SDS011;18147;51.952;6.146;2022-09-01T05:48:48;4.00;;;2.83;;
31537;SDS011;18147;51.952;6.146;2022-09-01T05:51:17;4.35;;;3.00;;
31537;SDS011;18147;51.952;6.146;2022-09-01T05:53:48;3.60;;;3.15;;
31537;SDS011;18147;51.952;6.146;2022-09-01T05:56:16;4.30;;;2.57;;
31537;SDS011;18147;51.952;6.146;2022-09-01T05:58:43;7.05;;;2.55;;
31537;SDS011;18147;51.952;6.146;2022-09-01T06:01:14;7.55;;;2.80;;
31537;SDS011;18147;51.952;6.146;2022-09-01T06:03:42;4.15;;;3.22;;
31537;SDS011;18147;51.952;6.146;2022-09-01T06:06:10;6.32;;;2.72;;
31537;SDS011;18147;51.952;6.146;2022-09-01T06:08:37;4.25;;;2.70;;
31537;SDS011;18147;51.952;6.146;2022-09-01T06:11:04;5.55;;;3.10;;
31537;SDS011;18147;51.952;6.146;2022-09-01T06:13:39;5.82;;;2.78;;
31537;SDS011;18147;51.952;6.146;2022-09-01T06:16:07;6.50;;;2.78;;
31537;SDS011;18147;51.952;6.146;2022-09-01T06:18:34;5.32;;;2.70;;
31537;SDS011;18147;51.952;6.146;2022-09-01T06:21:02;4.60;;;2.55;;
31537;SDS011;18147;51.952;6.146;2022-09-01T06:23:28;3.40;;;2.30;;
31537;SDS011;18147;51.952;6.146;2022-09-01T06:25:53;5.85;;;2.15;;
31537;SDS011;18147;51.952;6.146;2022-09-01T06:28:20;4.85;;;3.25;;
31537;SDS011;18147;51.952;6.146;2022-09-01T06:30:47;2.90;;;2.20;;
31537;SDS011;18147;51.952;6.146;2022-09-01T06:33:14;2.90;;;2.05;;
31537;SDS011;18147;51.952;6.146;2022-09-01T06:35:45;7.57;;;2.50;;
31537;SDS011;18147;51.952;6.146;2022-09-01T06:38:12;2.40;;;2.13;;
31537;SDS011;18147;51.952;6.146;2022-09-01T06:40:46;3.42;;;1.80;;
31537;SDS011;18147;51.952;6.146;2022-09-01T06:43:13;6.38;;;2.47;;
31537;SDS011;18147;51.952;6.146;2022-09-01T06:45:45;1.88;;;1.52;;
31537;SDS011;18147;51.952;6.146;2022-09-01T06:48:20;2.50;;;1.75;;
31537;SDS011;18147;51.952;6.146;2022-09-01T06:50:46;5.13;;;1.60;;
31537;SDS011;18147;51.952;6.146;2022-09-01T06:53:11;4.55;;;1.85;;
31537;SDS011;18147;51.952;6.146;2022-09-01T06:55:40;5.35;;;1.50;;
31537;SDS011;18147;51.952;6.146;2022-09-01T06:58:08;3.55;;;1.50;;
31537;SDS011;18147;51.952;6.146;2022-09-01T07:00:36;3.78;;;1.83;;
31537;SDS011;18147;51.952;6.146;2022-09-01T07:03:10;5.25;;;1.70;;
31537;SDS011;18147;51.952;6.146;2022-09-01T07:06:04;4.10;;;1.42;;
31537;SDS011;18147;51.952;6.146;2022-09-01T07:08:54;5.68;;;1.80;;
31537;SDS011;18147;51.952;6.146;2022-09-01T07:13:54;7.53;;;2.03;;
31537;SDS011;18147;51.952;6.146;2022-09-01T07:16:23;5.63;;;2.15;;
31537;SDS011;18147;51.952;6.146;2022-09-01T07:18:52;8.20;;;1.75;;
31537;SDS011;18147;51.952;6.146;2022-09-01T07:23:48;10.70;;;2.17;;
31537;SDS011;18147;51.952;6.146;2022-09-01T07:26:15;5.13;;;1.75;;
31537;SDS011;18147;51.952;6.146;2022-09-01T07:28:45;5.70;;;1.80;;
31537;SDS011;18147;51.952;6.146;2022-09-01T07:31:18;4.78;;;1.73;;
31537;SDS011;18147;51.952;6.146;2022-09-01T07:33:46;4.63;;;1.67;;
31537;SDS011;18147;51.952;6.146;2022-09-01T07:36:14;6.20;;;1.92;;
31537;SDS011;18147;51.952;6.146;2022-09-01T07:38:40;7.82;;;2.03;;
31537;SDS011;18147;51.952;6.146;2022-09-01T07:41:07;7.85;;;1.90;;
31537;SDS011;18147;51.952;6.146;2022-09-01T07:43:57;5.55;;;1.80;;
31537;SDS011;18147;51.952;6.146;2022-09-01T07:47:00;3.15;;;1.63;;
31537;SDS011;18147;51.952;6.146;2022-09-01T07:49:25;6.55;;;1.38;;
31537;SDS011;18147;51.952;6.146;2022-09-01T07:51:51;3.08;;;1.35;;
31537;SDS011;18147;51.952;6.146;2022-09-01T07:54:18;3.08;;;1.50;;
31537;SDS011;18147;51.952;6.146;2022-09-01T07:56:45;1.83;;;1.25;;
31537;SDS011;18147;51.952;6.146;2022-09-01T07:59:11;4.55;;;1.40;;
31537;SDS011;18147;51.952;6.146;2022-09-01T08:01:46;3.10;;;1.55;;
31537;SDS011;18147;51.952;6.146;2022-09-01T08:04:12;5.70;;;1.75;;
31537;SDS011;18147;51.952;6.146;2022-09-01T08:06:39;6.53;;;1.55;;
31537;SDS011;18147;51.952;6.146;2022-09-01T08:09:06;4.07;;;1.30;;
31537;SDS011;18147;51.952;6.146;2022-09-01T08:11:32;9.23;;;1.67;;
31537;SDS011;18147;51.952;6.146;2022-09-01T08:13:58;2.75;;;1.30;;
31537;SDS011;18147;51.952;6.146;2022-09-01T08:16:25;3.65;;;1.70;;
31537;SDS011;18147;51.952;6.146;2022-09-01T08:18:53;4.00;;;1.17;;
31537;SDS011;18147;51.952;6.146;2022-09-01T08:21:24;1.58;;;1.05;;
31537;SDS011;18147;51.952;6.146;2022-09-01T08:23:57;5.32;;;1.63;;
31537;SDS011;18147;51.952;6.146;2022-09-01T08:26:23;3.83;;;1.15;;
31537;SDS011;18147;51.952;6.146;2022-09-01T08:28:50;6.13;;;1.05;;
31537;SDS011;18147;51.952;6.146;2022-09-01T08:31:18;5.28;;;1.73;;
31537;SDS011;18147;51.952;6.146;2022-09-01T08:33:46;3.50;;;1.23;;
31537;SDS011;18147;51.952;6.146;2022-09-01T08:36:13;1.83;;;1.13;;
31537;SDS011;18147;51.952;6.146;2022-09-01T08:38:41;2.10;;;1.10;;
31537;SDS011;18147;51.952;6.146;2022-09-01T08:41:16;3.88;;;1.13;;
31537;SDS011;18147;51.952;6.146;2022-09-01T08:43:49;9.00;;;1.45;;
31537;SDS011;18147;51.952;6.146;2022-09-01T08:46:35;4.60;;;1.08;;
31537;SDS011;18147;51.952;6.146;2022-09-01T08:49:06;5.47;;;0.90;;
31537;SDS011;18147;51.952;6.146;2022-09-01T08:52:24;2.50;;;0.80;;
31537;SDS011;18147;51.952;6.146;2022-09-01T08:55:18;6.18;;;1.25;;
31537;SDS011;18147;51.952;6.146;2022-09-01T08:57:43;4.55;;;1.15;;
31537;SDS011;18147;51.952;6.146;2022-09-01T09:00:17;1.20;;;0.88;;
31537;SDS011;18147;51.952;6.146;2022-09-01T09:14:19;3.50;;;0.82;;
31537;SDS011;18147;51.952;6.146;2022-09-01T09:16:56;1.90;;;0.90;;
31537;SDS011;18147;51.952;6.146;2022-09-01T09:21:56;6.28;;;0.93;;
31537;SDS011;18147;51.952;6.146;2022-09-01T09:24:31;4.15;;;1.00;;
31537;SDS011;18147;51.952;6.146;2022-09-01T09:29:48;1.40;;;0.70;;
31537;SDS011;18147;51.952;6.146;2022-09-01T09:32:16;2.00;;;0.55;;
31537;SDS011;18147;51.952;6.146;2022-09-01T09:34:42;1.85;;;0.75;;
31537;SDS011;18147;51.952;6.146;2022-09-01T09:37:24;0.95;;;0.80;;
31537;SDS011;18147;51.952;6.146;2022-09-01T09:40:05;6.68;;;1.10;;
31537;SDS011;18147;51.952;6.146;2022-09-01T09:42:34;2.13;;;1.00;;
31537;SDS011;18147;51.952;6.146;2022-09-01T09:45:03;1.65;;;1.10;;
31537;SDS011;18147;51.952;6.146;2022-09-01T09:47:32;0.80;;;0.50;;
31537;SDS011;18147;51.952;6.146;2022-09-01T09:52:47;3.20;;;0.65;;
31537;SDS011;18147;51.952;6.146;2022-09-01T09:55:19;4.07;;;0.80;;
31537;SDS011;18147;51.952;6.146;2022-09-01T09:57:47;3.63;;;0.85;;
31537;SDS011;18147;51.952;6.146;2022-09-01T10:00:19;3.80;;;1.00;;
31537;SDS011;18147;51.952;6.146;2022-09-01T10:02:50;1.60;;;0.70;;
31537;SDS011;18147;51.952;6.146;2022-09-01T10:12:53;3.58;;;1.05;;
31537;SDS011;18147;51.952;6.146;2022-09-01T10:15:22;1.17;;;0.88;;
31537;SDS011;18147;51.952;6.146;2022-09-01T10:17:51;1.52;;;0.88;;
31537;SDS011;18147;51.952;6.146;2022-09-01T10:20:20;0.95;;;0.63;;
31537;SDS011;18147;51.952;6.146;2022-09-01T10:22:48;1.00;;;0.65;;
31537;SDS011;18147;51.952;6.146;2022-09-01T10:25:21;0.75;;;0.73;;
31537;SDS011;18147;51.952;6.146;2022-09-01T10:27:51;3.38;;;0.70;;
31537;SDS011;18147;51.952;6.146;2022-09-01T10:30:21;0.93;;;0.70;;
31537;SDS011;18147;51.952;6.146;2022-09-01T10:32:53;2.42;;;0.85;;
31537;SDS011;18147;51.952;6.146;2022-09-01T10:35:28;2.33;;;0.68;;
31537;SDS011;18147;51.952;6.146;2022-09-01T10:37:56;1.20;;;0.65;;
31537;SDS011;18147;51.952;6.146;2022-09-01T10:42:52;0.95;;;0.55;;
31537;SDS011;18147;51.952;6.146;2022-09-01T10:45:35;2.47;;;1.20;;
31537;SDS011;18147;51.952;6.146;2022-09-01T10:50:45;1.25;;;0.80;;
31537;SDS011;18147;51.952;6.146;2022-09-01T10:56:06;2.78;;;0.75;;
31537;SDS011;18147;51.952;6.146;2022-09-01T11:04:03;1.75;;;0.90;;
31537;SDS011;18147;51.952;6.146;2022-09-01T11:06:32;2.72;;;1.02;;
31537;SDS011;18147;51.952;6.146;2022-09-01T11:20:22;0.70;;;0.60;;
31537;SDS011;18147;51.952;6.146;2022-09-01T11:23:04;1.00;;;0.80;;
31537;SDS011;18147;51.952;6.146;2022-09-01T11:28:07;3.90;;;0.80;;
31537;SDS011;18147;51.952;6.146;2022-09-01T11:33:18;10.77;;;1.40;;
31537;SDS011;18147;51.952;6.146;2022-09-01T11:36:49;6.00;;;0.80;;
31537;SDS011;18147;51.952;6.146;2022-09-01T11:41:53;6.10;;;1.98;;
31537;SDS011;18147;51.952;6.146;2022-09-01T11:44:41;5.47;;;1.10;;
31537;SDS011;18147;51.952;6.146;2022-09-01T11:50:20;1.08;;;0.77;;
31537;SDS011;18147;51.952;6.146;2022-09-01T11:55:26;1.50;;;0.95;;
31537;SDS011;18147;51.952;6.146;2022-09-01T11:57:54;4.93;;;1.00;;
31537;SDS011;18147;51.952;6.146;2022-09-01T12:00:27;1.30;;;0.90;;
31537;SDS011;18147;51.952;6.146;2022-09-01T12:02:55;2.90;;;0.90;;
31537;SDS011;18147;51.952;6.146;2022-09-01T12:05:29;1.95;;;1.08;;
31537;SDS011;18147;51.952;6.146;2022-09-01T12:08:01;4.07;;;1.05;;
31537;SDS011;18147;51.952;6.146;2022-09-01T12:10:33;1.20;;;0.75;;
31537;SDS011;18147;51.952;6.146;2022-09-01T12:13:16;1.40;;;1.00;;
31537;SDS011;18147;51.952;6.146;2022-09-01T12:15:42;1.85;;;1.00;;
31537;SDS011;18147;51.952;6.146;2022-09-01T12:20:37;0.82;;;0.73;;
31537;SDS011;18147;51.952;6.146;2022-09-01T12:23:14;3.33;;;0.77;;
31537;SDS011;18147;51.952;6.146;2022-09-01T12:25:42;4.60;;;1.02;;
31537;SDS011;18147;51.952;6.146;2022-09-01T12:28:09;2.85;;;0.80;;
31537;SDS011;18147;51.952;6.146;2022-09-01T12:30:35;2.38;;;0.90;;
31537;SDS011;18147;51.952;6.146;2022-09-01T12:33:04;1.10;;;0.85;;
31537;SDS011;18147;51.952;6.146;2022-09-01T12:35:33;2.60;;;0.88;;
31537;SDS011;18147;51.952;6.146;2022-09-01T12:40:42;1.05;;;0.75;;
31537;SDS011;18147;51.952;6.146;2022-09-01T12:43:09;1.25;;;0.65;;
31537;SDS011;18147;51.952;6.146;2022-09-01T12:45:39;4.18;;;1.20;;
31537;SDS011;18147;51.952;6.146;2022-09-01T12:48:21;1.88;;;1.05;;
31537;SDS011;18147;51.952;6.146;2022-09-01T12:50:53;4.90;;;0.90;;
31537;SDS011;18147;51.952;6.146;2022-09-01T12:53:20;5.97;;;1.55;;
31537;SDS011;18147;51.952;6.146;2022-09-01T12:56:22;3.33;;;0.80;;
31537;SDS011;18147;51.952;6.146;2022-09-01T12:58:43;3.45;;;1.00;;
31537;SDS011;18147;51.952;6.146;2022-09-01T13:01:22;1.63;;;0.65;;
31537;SDS011;18147;51.952;6.146;2022-09-01T13:06:38;1.67;;;1.10;;
31537;SDS011;18147;51.952;6.146;2022-09-01T13:09:03;5.85;;;0.90;;
31537;SDS011;18147;51.952;6.146;2022-09-01T13:11:29;2.50;;;1.20;;
31537;SDS011;18147;51.952;6.146;2022-09-01T13:13:54;4.53;;;1.00;;
31537;SDS011;18147;51.952;6.146;2022-09-01T13:16:19;4.90;;;1.00;;
31537;SDS011;18147;51.952;6.146;2022-09-01T13:18:45;5.50;;;0.73;;
31537;SDS011;18147;51.952;6.146;2022-09-01T13:21:11;2.60;;;0.75;;
31537;SDS011;18147;51.952;6.146;2022-09-01T13:23:36;2.15;;;0.77;;
31537;SDS011;18147;51.952;6.146;2022-09-01T13:26:02;2.70;;;1.08;;
31537;SDS011;18147;51.952;6.146;2022-09-01T13:28:28;3.00;;;1.10;;
31537;SDS011;18147;51.952;6.146;2022-09-01T13:30:55;3.05;;;1.10;;
31537;SDS011;18147;51.952;6.146;2022-09-01T13:33:23;3.63;;;0.85;;
31537;SDS011;18147;51.952;6.146;2022-09-01T13:35:49;2.72;;;0.90;;
31537;SDS011;18147;51.952;6.146;2022-09-01T13:38:15;4.30;;;0.98;;
31537;SDS011;18147;51.952;6.146;2022-09-01T13:40:41;2.05;;;1.10;;
31537;SDS011;18147;51.952;6.146;2022-09-01T13:43:07;2.95;;;1.00;;
31537;SDS011;18147;51.952;6.146;2022-09-01T13:45:33;3.65;;;0.60;;
31537;SDS011;18147;51.952;6.146;2022-09-01T13:47:59;8.18;;;1.33;;
31537;SDS011;18147;51.952;6.146;2022-09-01T13:50:25;1.45;;;0.68;;
31537;SDS011;18147;51.952;6.146;2022-09-01T13:52:52;2.15;;;1.08;;
31537;SDS011;18147;51.952;6.146;2022-09-01T13:55:20;1.80;;;0.80;;
31537;SDS011;18147;51.952;6.146;2022-09-01T13:57:49;2.72;;;1.00;;
31537;SDS011;18147;51.952;6.146;2022-09-01T14:00:16;1.67;;;0.80;;
31537;SDS011;18147;51.952;6.146;2022-09-01T14:02:45;3.60;;;1.35;;
31537;SDS011;18147;51.952;6.146;2022-09-01T14:05:13;3.97;;;0.80;;
31537;SDS011;18147;51.952;6.146;2022-09-01T14:07:40;3.58;;;1.17;;
31537;SDS011;18147;51.952;6.146;2022-09-01T14:10:05;1.60;;;0.93;;
31537;SDS011;18147;51.952;6.146;2022-09-01T14:12:32;4.28;;;1.40;;
31537;SDS011;18147;51.952;6.146;2022-09-01T14:14:58;2.28;;;1.20;;
31537;SDS011;18147;51.952;6.146;2022-09-01T14:17:23;2.55;;;0.70;;
31537;SDS011;18147;51.952;6.146;2022-09-01T14:19:49;1.75;;;0.95;;
31537;SDS011;18147;51.952;6.146;2022-09-01T14:22:15;2.47;;;1.10;;
31537;SDS011;18147;51.952;6.146;2022-09-01T14:24:40;1.63;;;1.13;;
31537;SDS011;18147;51.952;6.146;2022-09-01T14:27:06;1.48;;;1.00;;
31537;SDS011;18147;51.952;6.146;2022-09-01T14:29:31;1.98;;;0.90;;
31537;SDS011;18147;51.952;6.146;2022-09-01T14:31:57;1.00;;;0.90;;
31537;SDS011;18147;51.952;6.146;2022-09-01T14:34:23;4.07;;;0.95;;
31537;SDS011;18147;51.952;6.146;2022-09-01T14:36:49;2.63;;;1.33;;
31537;SDS011;18147;51.952;6.146;2022-09-01T14:39:17;1.60;;;1.20;;
31537;SDS011;18147;51.952;6.146;2022-09-01T14:41:42;1.90;;;1.20;;
31537;SDS011;18147;51.952;6.146;2022-09-01T14:44:08;4.47;;;1.02;;
31537;SDS011;18147;51.952;6.146;2022-09-01T14:46:33;4.38;;;1.20;;
31537;SDS011;18147;51.952;6.146;2022-09-01T14:48:59;2.30;;;1.50;;
31537;SDS011;18147;51.952;6.146;2022-09-01T14:51:26;7.57;;;1.70;;
31537;SDS011;18147;51.952;6.146;2022-09-01T14:53:53;3.47;;;1.10;;
31537;SDS011;18147;51.952;6.146;2022-09-01T14:56:19;5.40;;;1.48;;
31537;SDS011;18147;51.952;6.146;2022-09-01T14:58:46;2.55;;;1.38;;
31537;SDS011;18147;51.952;6.146;2022-09-01T15:01:14;2.25;;;1.30;;
31537;SDS011;18147;51.952;6.146;2022-09-01T15:03:47;1.40;;;1.30;;
31537;SDS011;18147;51.952;6.146;2022-09-01T15:06:13;3.58;;;1.30;;
31537;SDS011;18147;51.952;6.146;2022-09-01T15:08:40;3.42;;;1.17;;
31537;SDS011;18147;51.952;6.146;2022-09-01T15:11:07;3.10;;;1.30;;
31537;SDS011;18147;51.952;6.146;2022-09-01T15:13:34;0.98;;;0.90;;
31537;SDS011;18147;51.952;6.146;2022-09-01T15:16:00;3.70;;;1.00;;
31537;SDS011;18147;51.952;6.146;2022-09-01T15:18:26;2.97;;;1.20;;
31537;SDS011;18147;51.952;6.146;2022-09-01T15:20:51;2.95;;;1.08;;
31537;SDS011;18147;51.952;6.146;2022-09-01T15:23:21;1.00;;;0.93;;
31537;SDS011;18147;51.952;6.146;2022-09-01T15:25:50;3.60;;;1.20;;
31537;SDS011;18147;51.952;6.146;2022-09-01T15:28:17;1.50;;;1.00;;
31537;SDS011;18147;51.952;6.146;2022-09-01T15:30:43;2.28;;;1.27;;
31537;SDS011;18147;51.952;6.146;2022-09-01T15:33:10;2.00;;;1.40;;
31537;SDS011;18147;51.952;6.146;2022-09-01T15:35:36;9.90;;;1.77;;
31537;SDS011;18147;51.952;6.146;2022-09-01T15:38:01;1.58;;;1.08;;
31537;SDS011;18147;51.952;6.146;2022-09-01T15:40:28;1.35;;;0.90;;
31537;SDS011;18147;51.952;6.146;2022-09-01T15:42:54;7.53;;;1.60;;
31537;SDS011;18147;51.952;6.146;2022-09-01T15:45:21;2.70;;;1.20;;
31537;SDS011;18147;51.952;6.146;2022-09-01T15:47:48;4.75;;;1.10;;
31537;SDS011;18147;51.952;6.146;2022-09-01T15:50:15;1.58;;;1.02;;
31537;SDS011;18147;51.952;6.146;2022-09-01T15:58:05;4.53;;;1.15;;
31537;SDS011;18147;51.952;6.146;2022-09-01T16:00:31;2.13;;;1.05;;
31537;SDS011;18147;51.952;6.146;2022-09-01T16:02:57;2.65;;;1.00;;
31537;SDS011;18147;51.952;6.146;2022-09-01T16:05:26;1.83;;;0.85;;
31537;SDS011;18147;51.952;6.146;2022-09-01T16:07:52;2.20;;;1.10;;
31537;SDS011;18147;51.952;6.146;2022-09-01T16:10:18;2.08;;;1.00;;
31537;SDS011;18147;51.952;6.146;2022-09-01T16:12:44;4.03;;;1.17;;
31537;SDS011;18147;51.952;6.146;2022-09-01T16:15:16;2.53;;;1.05;;
31537;SDS011;18147;51.952;6.146;2022-09-01T16:17:50;4.80;;;1.33;;
31537;SDS011;18147;51.952;6.146;2022-09-01T16:20:23;4.72;;;0.77;;
31537;SDS011;18147;51.952;6.146;2022-09-01T16:22:54;0.77;;;0.77;;
31537;SDS011;18147;51.952;6.146;2022-09-01T16:25:25;4.78;;;1.48;;
31537;SDS011;18147;51.952;6.146;2022-09-01T16:27:56;1.20;;;0.80;;
31537;SDS011;18147;51.952;6.146;2022-09-01T16:30:26;1.63;;;1.05;;
31537;SDS011;18147;51.952;6.146;2022-09-01T16:32:55;4.15;;;1.13;;